Cottonwood, AZ

2:06 AM MST on March 04, 2015 (GMT -0700)
Flagstaff Pulliam | Change Station
CLOSE
Current Station
Airport
Location: Flagstaff,
Elevation: 7011 ft
Nearby Weather Stations

Elev 7011 ft 35.14 °N, 111.67 °W | Updated 9 hours ago

Clear
Clear
35 °F
Feels Like 32 °F
N
4
Wind Variable Wind from NW
Gusts mph

Today
High -- | Low -- °F
--% Chance of Precip.
Yesterday
High -- | Low -- °F
Precip. -- in
6:53 AM 6:26 PM
Waxing Gibbous, 98% visible
Pressure 29.82 in
Visibility 10.0 miles
Clouds Few 2600 ft
Scattered Clouds 3100 ft
Mostly Cloudy 6000 ft
Windchill 32 °F
Dew Point 31 °F
Humidity 85%
Rainfall 0.00 in
Snow Depth Not available.
UV 1 out of 12
Pollen 6.80 out of 12
Air Quality Not available.
Flu Activity Not available.
METAR KFLG 032357Z 26005KT 10SM FEW026 SCT031 BKN060 01/M03 A2985 RMK AO2 SNE2258 SLP098 P0000 60000 T00111033 10022 21011 55000

More Conditions Fewer Conditions

Pressure 29.82 in
Visibility 10.0 miles
Clouds Few 2600 ft
Scattered Clouds 3100 ft
Mostly Cloudy 6000 ft
Windchill 32 °F
Dew Point 31 °F
Humidity 85%
Rainfall 0.00 in
Snow Depth Not available.
UV 1 out of 12
Pollen 6.80 out of 12
Air Quality Not available.
Flu Activity Not available.
METAR KFLG 032357Z 26005KT 10SM FEW026 SCT031 BKN060 01/M03 A2985 RMK AO2 SNE2258 SLP098 P0000 60000 T00111033 10022 21011 55000

More Conditions Fewer Conditions

10-Day Weather Forecast

Almanac

Astronomy

Mar. 04, 2015 Rise Set
Actual Time
Civil Twilight
Nautical Twilight
Astronomical Twilight
Moon
Length of Visible Light
Length of Day
Tomorrow will be .
, % of the Moon is Illuminated

Today's Extremes

State Highs State Lows

Community

WunderPhotos

Upload Photos

1,802,418 photos uploaded!

WunderBlogs® & News

Nearby

Air Quality

  Air Quality AQ Index Pollutant
Not available.

Snow Depth

Station Depth Elevation

Earthquake Activity

City Distance Mag. Time & Date
Minimum magnitude displayed is 2.5.

Coastal Water Temperatures

Place Temperature

Nearby Weather Stations